Time;durP1;ratioP1;P1;durP2;ratioP2;P2;SDS_P1;SDS_P2;PMS_P1;PMS_P2;Temp;Humidity;BMP_temperature;BMP_pressure;BME280_temperature;BME280_humidity;BME280_pressure;Samples;Min_cycle;Max_cycle;Signal;HPM_P1;HPM_P2
2021/05/13 00:00:13;;;;;;;22.30;14.90;;;13.20;98.30;;;;;;4118117;28;21000;-83
2021/05/13 00:02:15;;;;;;;22.10;14.27;;;13.20;98.30;;;;;;4119889;28;21023;-84
2021/05/13 00:04:19;;;;;;;19.70;14.60;;;13.20;98.30;;;;;;4118083;28;20957;-83
2021/05/13 00:06:21;;;;;;;21.60;15.57;;;13.20;98.30;;;;;;4122254;28;21052;-83
2021/05/13 00:08:24;;;;;;;21.10;15.83;;;13.30;98.30;;;;;;4113414;28;20524;-83
2021/05/13 00:10:28;;;;;;;22.37;15.60;;;13.40;98.30;;;;;;4124700;28;20459;-83
2021/05/13 00:12:38;;;;;;;20.70;14.03;;;13.30;98.30;;;;;;4117583;28;20472;-83
2021/05/13 00:14:41;;;;;;;19.27;14.50;;;13.30;98.30;;;;;;4110640;28;20469;-83
2021/05/13 00:16:44;;;;;;;20.40;15.10;;;13.30;98.30;;;;;;4115068;28;20469;-83
2021/05/13 00:18:47;;;;;;;21.00;14.73;;;13.30;98.30;;;;;;4117643;28;20888;-83
2021/05/13 00:20:51;;;;;;;19.70;15.00;;;13.20;98.30;;;;;;4120705;28;20468;-83
2021/05/13 00:22:54;;;;;;;21.27;15.67;;;13.20;98.30;;;;;;4118748;28;20527;-82
2021/05/13 00:24:59;;;;;;;21.40;14.73;;;13.10;98.30;;;;;;4123026;28;20467;-83
2021/05/13 00:27:02;;;;;;;23.30;15.27;;;12.90;98.30;;;;;;4118124;28;21032;-83
2021/05/13 00:29:06;;;;;;;20.57;14.50;;;12.90;98.30;;;;;;4119707;28;20499;-83
2021/05/13 00:31:08;;;;;;;18.47;13.00;;;12.80;98.30;;;;;;4119086;28;20575;-83
2021/05/13 00:33:11;;;;;;;22.47;14.70;;;12.80;98.30;;;;;;4123673;28;20822;-82
2021/05/13 00:35:16;;;;;;;20.50;14.77;;;12.80;98.30;;;;;;4121992;28;20471;-83
2021/05/13 00:37:19;;;;;;;20.10;13.00;;;12.80;98.30;;;;;;4121751;28;20473;-83
2021/05/13 00:39:21;;;;;;;19.43;14.17;;;12.80;98.30;;;;;;4121973;28;20853;-82
2021/05/13 00:41:24;;;;;;;21.50;15.07;;;12.70;98.30;;;;;;4120455;28;20499;-82
2021/05/13 00:43:26;;;;;;;21.53;14.90;;;12.70;98.30;;;;;;4120986;28;20468;-82
2021/05/13 00:45:29;;;;;;;28.90;16.13;;;12.70;98.30;;;;;;4123456;28;20467;-82
2021/05/13 00:47:35;;;;;;;26.10;17.43;;;12.80;98.30;;;;;;4119022;28;20498;-83
2021/05/13 00:49:37;;;;;;;23.33;15.10;;;12.70;98.30;;;;;;4116894;28;20517;-82
2021/05/13 00:51:39;;;;;;;27.60;15.97;;;12.70;98.30;;;;;;4120162;28;20505;-82
2021/05/13 00:53:45;;;;;;;20.90;14.23;;;12.70;98.30;;;;;;4120106;28;20478;-82
2021/05/13 00:55:50;;;;;;;25.43;16.40;;;12.80;98.30;;;;;;4119379;28;20464;-82
2021/05/13 00:57:54;;;;;;;24.43;16.50;;;12.90;98.30;;;;;;4119988;28;20469;-82
2021/05/13 01:00:00;;;;;;;25.80;16.80;;;12.90;98.30;;;;;;4121054;28;20466;-82
2021/05/13 01:02:03;;;;;;;21.83;15.43;;;12.90;98.30;;;;;;4119616;28;20469;-83
2021/05/13 01:04:06;;;;;;;23.63;16.33;;;12.90;98.30;;;;;;4118572;28;20467;-83
2021/05/13 01:06:11;;;;;;;20.83;15.80;;;12.90;98.30;;;;;;4125446;28;20557;-83
2021/05/13 01:08:14;;;;;;;21.47;15.63;;;12.80;98.30;;;;;;4118203;28;20468;-83
2021/05/13 01:10:18;;;;;;;25.90;16.27;;;12.80;98.30;;;;;;4118850;28;20458;-83
2021/05/13 01:12:21;;;;;;;24.17;16.93;;;12.70;98.30;;;;;;4123317;28;21028;-83
2021/05/13 01:14:27;;;;;;;24.70;16.70;;;12.80;98.30;;;;;;4123037;28;20472;-83
2021/05/13 01:16:35;;;;;;;26.30;17.53;;;12.70;98.30;;;;;;4122670;28;20474;-83
2021/05/13 01:18:40;;;;;;;23.63;15.47;;;12.70;98.30;;;;;;4118661;28;20518;-83
2021/05/13 01:20:43;;;;;;;24.13;15.00;;;12.70;98.30;;;;;;4121378;28;20476;-84
2021/05/13 01:22:47;;;;;;;21.50;16.00;;;12.70;98.30;;;;;;4121076;28;20484;-83
2021/05/13 01:24:50;;;;;;;23.43;15.73;;;12.80;98.30;;;;;;4118259;28;20875;-83
2021/05/13 01:26:53;;;;;;;23.67;14.03;;;12.80;98.30;;;;;;4114726;28;20474;-83
2021/05/13 01:28:58;;;;;;;23.40;15.17;;;12.90;98.30;;;;;;4113629;28;20501;-83
2021/05/13 01:31:00;;;;;;;24.30;15.90;;;12.90;98.30;;;;;;4119507;28;20467;-84
2021/05/13 01:33:03;;;;;;;22.30;15.90;;;13.00;98.30;;;;;;4121523;28;20498;-83
2021/05/13 01:35:06;;;;;;;20.20;14.43;;;13.10;98.30;;;;;;4114173;28;20714;-83
2021/05/13 01:37:09;;;;;;;20.17;15.33;;;13.10;98.30;;;;;;4109930;28;20508;-83
2021/05/13 01:39:13;;;;;;;23.67;16.17;;;13.10;98.30;;;;;;4109747;28;20488;-84
2021/05/13 01:41:15;;;;;;;27.73;17.00;;;13.20;98.30;;;;;;4123165;28;20471;-83
2021/05/13 01:43:19;;;;;;;23.80;16.67;;;13.20;98.30;;;;;;4119725;28;20476;-84
2021/05/13 01:45:21;;;;;;;25.03;16.83;;;13.00;98.30;;;;;;4117683;28;20557;-83
2021/05/13 01:47:24;;;;;;;22.73;16.27;;;13.10;98.30;;;;;;4116585;28;20976;-84
2021/05/13 01:49:28;;;;;;;23.37;15.80;;;13.00;98.30;;;;;;4122435;28;20573;-84
2021/05/13 01:51:31;;;;;;;23.93;16.00;;;12.90;98.30;;;;;;4121489;28;20918;-83
2021/05/13 01:53:33;;;;;;;22.30;16.33;;;12.90;98.30;;;;;;4109452;28;20464;-84
2021/05/13 01:55:37;;;;;;;24.17;16.70;;;12.90;98.30;;;;;;4113954;28;20477;-83
2021/05/13 01:57:39;;;;;;;23.73;16.80;;;13.00;98.30;;;;;;4106936;28;21283;-83
2021/05/13 01:59:41;;;;;;;26.03;17.63;;;13.00;98.30;;;;;;4118028;28;20582;-83
2021/05/13 02:01:44;;;;;;;26.70;16.60;;;13.00;98.30;;;;;;4119250;28;20503;-84
2021/05/13 02:03:47;;;;;;;27.80;16.67;;;13.00;98.30;;;;;;4119614;28;20892;-83
2021/05/13 02:05:49;;;;;;;27.07;17.57;;;12.90;98.30;;;;;;4116026;28;20476;-82
2021/05/13 02:07:51;;;;;;;23.50;16.70;;;12.90;98.30;;;;;;4119979;28;20551;-82
2021/05/13 02:09:54;;;;;;;32.83;18.23;;;12.90;98.30;;;;;;4118210;28;20488;-82
2021/05/13 02:11:59;;;;;;;25.00;18.47;;;12.90;98.30;;;;;;4123647;28;20488;-83
2021/05/13 02:14:01;;;;;;;27.07;18.03;;;12.90;98.30;;;;;;4111072;28;20472;-83
2021/05/13 02:16:04;;;;;;;26.03;16.97;;;13.00;98.30;;;;;;4123581;28;20845;-83
2021/05/13 02:18:07;;;;;;;29.00;17.07;;;13.00;98.30;;;;;;4103262;28;20504;-83
2021/05/13 02:20:11;;;;;;;28.20;16.57;;;12.90;98.30;;;;;;4118174;28;20468;-83
2021/05/13 02:22:14;;;;;;;29.90;17.63;;;12.90;98.30;;;;;;4123167;28;20478;-83
2021/05/13 02:24:16;;;;;;;31.57;17.90;;;13.00;98.30;;;;;;4110859;28;20555;-83
2021/05/13 02:26:20;;;;;;;24.07;16.57;;;13.00;98.30;;;;;;4116356;28;20471;-83
2021/05/13 02:28:23;;;;;;;28.63;17.13;;;12.90;98.30;;;;;;4109638;28;21105;-83
2021/05/13 02:30:26;;;;;;;23.57;16.10;;;12.90;98.30;;;;;;4117225;28;20934;-84
2021/05/13 02:32:28;;;;;;;26.93;18.07;;;12.80;98.30;;;;;;4119883;28;21035;-83
2021/05/13 02:34:31;;;;;;;30.43;17.30;;;12.90;98.30;;;;;;4119715;28;20495;-83
2021/05/13 02:36:33;;;;;;;25.03;17.97;;;12.90;98.30;;;;;;4111777;28;20475;-83
2021/05/13 02:38:36;;;;;;;23.03;16.37;;;12.90;98.30;;;;;;4122130;28;20500;-83
2021/05/13 02:40:38;;;;;;;22.70;15.57;;;12.90;98.30;;;;;;4115439;28;20887;-83
2021/05/13 02:42:41;;;;;;;26.53;18.03;;;12.80;98.30;;;;;;4117078;28;20969;-83
2021/05/13 02:44:44;;;;;;;23.80;14.90;;;12.80;98.30;;;;;;4115818;28;20575;-83
2021/05/13 02:46:47;;;;;;;23.80;17.13;;;12.80;98.30;;;;;;4111478;28;20483;-83
2021/05/13 02:48:49;;;;;;;28.07;16.87;;;12.80;98.30;;;;;;4115539;28;20523;-84
2021/05/13 02:50:52;;;;;;;26.20;15.73;;;12.80;98.30;;;;;;4118415;28;20827;-83
2021/05/13 02:52:54;;;;;;;26.33;16.97;;;12.80;98.30;;;;;;4116716;28;20831;-83
2021/05/13 02:54:57;;;;;;;27.53;17.30;;;12.80;98.30;;;;;;4119892;28;20486;-83
2021/05/13 02:56:59;;;;;;;24.10;17.83;;;12.80;98.30;;;;;;4121125;28;20958;-83
2021/05/13 02:59:01;;;;;;;29.50;16.60;;;12.90;98.30;;;;;;4119011;28;20496;-83
2021/05/13 03:01:08;;;;;;;26.13;17.30;;;12.90;98.30;;;;;;4116482;28;20498;-83
2021/05/13 03:03:11;;;;;;;23.50;15.70;;;12.80;98.30;;;;;;4112770;28;20464;-82
2021/05/13 03:05:15;;;;;;;26.10;16.30;;;12.80;98.30;;;;;;4110891;28;20472;-82
2021/05/13 03:07:18;;;;;;;22.87;16.60;;;12.80;98.30;;;;;;4107513;28;20503;-83
2021/05/13 03:09:20;;;;;;;22.87;16.37;;;12.80;98.30;;;;;;4119466;28;20494;-83
2021/05/13 03:11:24;;;;;;;27.07;16.37;;;12.90;98.30;;;;;;4116883;28;20529;-83
2021/05/13 03:13:27;;;;;;;24.73;15.70;;;12.90;98.30;;;;;;4115418;28;20492;-83
2021/05/13 03:15:30;;;;;;;28.77;16.97;;;12.80;98.30;;;;;;4107887;28;20463;-84
2021/05/13 03:17:33;;;;;;;26.03;17.43;;;12.70;98.30;;;;;;4126835;28;20831;-83
2021/05/13 03:19:41;;;;;;;26.73;16.30;;;12.70;98.30;;;;;;4119229;28;20494;-83
2021/05/13 03:21:46;;;;;;;29.43;17.40;;;12.70;98.30;;;;;;4118453;28;20479;-84
2021/05/13 03:23:53;;;;;;;25.60;16.30;;;12.80;98.30;;;;;;4116740;28;20996;-83
2021/05/13 03:25:59;;;;;;;26.33;17.30;;;12.80;98.30;;;;;;4113999;28;20475;-83
2021/05/13 03:28:09;;;;;;;29.33;17.20;;;12.80;98.30;;;;;;4113353;28;20486;-82
2021/05/13 03:30:13;;;;;;;28.07;15.83;;;12.80;98.30;;;;;;4212429;23;20521;-82
2021/05/13 03:32:16;;;;;;;24.90;16.90;;;12.80;98.30;;;;;;4130382;28;20992;-82
2021/05/13 03:34:19;;;;;;;31.83;20.63;;;12.80;98.30;;;;;;4127905;28;20852;-82
2021/05/13 03:36:21;;;;;;;29.37;20.17;;;12.80;98.30;;;;;;4130081;28;20525;-82
2021/05/13 03:38:24;;;;;;;27.20;16.63;;;12.80;98.30;;;;;;4125584;28;20979;-82
2021/05/13 03:40:28;;;;;;;29.07;17.53;;;12.80;98.30;;;;;;4115085;28;20535;-82
2021/05/13 03:42:31;;;;;;;27.57;17.43;;;12.80;98.30;;;;;;4114801;28;20468;-82
2021/05/13 03:44:33;;;;;;;26.30;17.30;;;12.80;98.30;;;;;;4115018;28;20945;-82
2021/05/13 03:46:36;;;;;;;32.33;18.40;;;12.80;98.30;;;;;;4114477;28;20495;-82
2021/05/13 03:48:38;;;;;;;25.17;16.93;;;12.80;98.30;;;;;;4110904;28;20818;-82
2021/05/13 03:50:42;;;;;;;27.50;18.23;;;12.90;98.30;;;;;;4112239;28;20479;-82
2021/05/13 03:52:45;;;;;;;26.23;17.23;;;12.90;98.30;;;;;;4114254;28;20524;-82
2021/05/13 03:54:47;;;;;;;30.67;17.60;;;12.90;98.30;;;;;;4113999;28;20508;-83
2021/05/13 03:56:49;;;;;;;28.43;17.67;;;12.90;98.30;;;;;;4110724;28;20479;-83
2021/05/13 03:58:56;;;;;;;29.57;17.97;;;12.80;98.30;;;;;;4115154;28;20531;-83
2021/05/13 04:01:09;;;;;;;24.87;16.33;;;12.80;98.30;;;;;;4111597;28;20546;-83
2021/05/13 04:03:12;;;;;;;27.77;17.10;;;12.70;98.30;;;;;;4113305;28;20468;-83
2021/05/13 04:05:14;;;;;;;26.50;17.57;;;12.70;98.30;;;;;;4111148;28;20472;-83
2021/05/13 04:07:18;;;;;;;25.43;18.50;;;12.70;98.30;;;;;;4114475;28;20994;-83
2021/05/13 04:09:20;;;;;;;27.57;17.77;;;12.80;98.30;;;;;;4109233;28;20571;-83
2021/05/13 04:11:23;;;;;;;32.23;20.60;;;12.80;98.30;;;;;;4112397;28;20499;-83
2021/05/13 04:13:26;;;;;;;34.20;18.17;;;12.90;98.30;;;;;;4112029;28;20495;-83
2021/05/13 04:15:28;;;;;;;28.73;18.13;;;12.90;98.30;;;;;;4112635;28;23568;-83
2021/05/13 04:17:31;;;;;;;25.20;17.67;;;12.90;98.30;;;;;;4110690;28;20464;-85
2021/05/13 04:19:34;;;;;;;28.57;16.70;;;12.90;98.30;;;;;;4111815;28;20588;-83
2021/05/13 04:21:36;;;;;;;39.33;19.70;;;12.90;98.30;;;;;;4113255;28;20558;-83
2021/05/13 04:23:40;;;;;;;85.60;55.30;;;13.00;98.30;;;;;;4113926;28;20547;-83
2021/05/13 04:25:43;;;;;;;57.00;32.23;;;12.90;98.30;;;;;;4112686;28;20490;-83
2021/05/13 04:27:46;;;;;;;59.53;37.40;;;12.90;98.30;;;;;;4113369;28;20494;-83
2021/05/13 04:29:49;;;;;;;40.10;25.13;;;12.80;98.30;;;;;;4109074;28;20499;-83
2021/05/13 04:31:51;;;;;;;32.47;19.23;;;12.80;98.30;;;;;;4111598;28;20479;-83
2021/05/13 04:33:54;;;;;;;31.07;18.10;;;12.70;98.30;;;;;;4112137;28;20480;-83
2021/05/13 04:35:56;;;;;;;31.80;19.50;;;12.80;98.30;;;;;;4113907;28;21025;-83
2021/05/13 04:37:59;;;;;;;28.63;18.33;;;12.80;98.30;;;;;;4113740;28;20533;-83
2021/05/13 04:40:02;;;;;;;36.00;19.57;;;12.90;98.30;;;;;;4112718;28;20583;-83
2021/05/13 04:42:05;;;;;;;29.83;17.37;;;12.90;98.30;;;;;;4113296;28;20906;-83
2021/05/13 04:44:08;;;;;;;30.20;18.30;;;12.80;98.30;;;;;;4112969;28;20468;-83
2021/05/13 04:46:10;;;;;;;31.53;18.10;;;12.90;98.30;;;;;;4113325;28;20487;-83
2021/05/13 04:48:15;;;;;;;30.87;18.70;;;12.90;98.30;;;;;;4114831;28;20490;-83
2021/05/13 04:50:18;;;;;;;27.37;17.80;;;12.90;98.30;;;;;;4114483;28;20604;-83
2021/05/13 04:52:23;;;;;;;29.13;16.97;;;12.80;98.30;;;;;;4114618;28;20551;-84
2021/05/13 04:54:25;;;;;;;26.17;17.23;;;12.80;98.30;;;;;;4115972;28;20469;-84
2021/05/13 04:56:30;;;;;;;29.00;17.40;;;12.80;98.30;;;;;;4116154;28;21019;-83
2021/05/13 04:58:32;;;;;;;27.20;18.23;;;12.80;98.30;;;;;;4118959;28;20496;-83
2021/05/13 05:00:35;;;;;;;30.10;17.87;;;12.80;98.30;;;;;;4116596;28;20924;-83
2021/05/13 05:02:37;;;;;;;28.23;16.90;;;12.80;98.30;;;;;;4116652;28;20539;-83
2021/05/13 05:04:40;;;;;;;26.40;17.20;;;12.80;98.30;;;;;;4117664;28;20480;-83
2021/05/13 05:06:42;;;;;;;27.60;17.17;;;12.90;98.30;;;;;;4119299;28;20556;-83
2021/05/13 05:08:45;;;;;;;30.70;17.80;;;12.90;98.30;;;;;;4116920;28;20488;-83
2021/05/13 05:10:47;;;;;;;30.33;19.07;;;12.90;98.30;;;;;;4115456;28;20486;-83
2021/05/13 05:12:50;;;;;;;25.60;17.73;;;12.90;98.30;;;;;;4115719;28;20826;-83
2021/05/13 05:14:53;;;;;;;26.37;17.47;;;12.90;98.30;;;;;;4115899;28;20479;-83
2021/05/13 05:16:55;;;;;;;26.20;16.57;;;12.90;98.30;;;;;;4116269;28;20829;-82
2021/05/13 05:18:58;;;;;;;23.73;15.60;;;13.00;98.30;;;;;;4117864;28;20491;-83
2021/05/13 05:21:00;;;;;;;49.60;32.57;;;13.00;98.30;;;;;;4114832;28;20472;-83
2021/05/13 05:23:03;;;;;;;64.07;38.93;;;13.00;98.30;;;;;;4115481;28;20586;-83
2021/05/13 05:25:07;;;;;;;50.97;33.83;;;13.00;98.30;;;;;;4118102;28;20551;-83
2021/05/13 05:27:09;;;;;;;31.17;21.73;;;13.00;98.30;;;;;;4121960;28;20476;-83
2021/05/13 05:29:12;;;;;;;30.77;19.37;;;13.10;98.30;;;;;;4125189;28;20504;-83
2021/05/13 05:31:15;;;;;;;38.60;24.23;;;13.10;98.30;;;;;;4124878;28;20464;-83
2021/05/13 05:33:17;;;;;;;56.43;36.20;;;13.10;98.30;;;;;;4123447;28;20968;-83
2021/05/13 05:35:20;;;;;;;80.30;47.23;;;13.10;98.30;;;;;;4122697;28;20468;-82
2021/05/13 05:37:22;;;;;;;38.30;23.17;;;13.10;98.30;;;;;;4124024;28;20472;-82
2021/05/13 05:39:25;;;;;;;26.00;17.80;;;13.20;98.30;;;;;;4125684;28;20563;-83
2021/05/13 05:41:27;;;;;;;31.30;16.97;;;13.20;98.30;;;;;;4121453;28;20471;-83
2021/05/13 05:43:30;;;;;;;29.33;17.37;;;13.10;98.30;;;;;;4116159;28;20523;-83
2021/05/13 05:45:36;;;;;;;34.30;16.77;;;13.10;98.30;;;;;;4114626;28;20470;-83
2021/05/13 05:47:39;;;;;;;26.17;17.10;;;13.00;98.30;;;;;;4117625;28;20460;-83
2021/05/13 05:49:41;;;;;;;28.83;17.30;;;13.00;98.30;;;;;;4117271;28;20496;-83
2021/05/13 05:51:44;;;;;;;25.27;17.07;;;13.00;98.30;;;;;;4117558;28;20478;-83
2021/05/13 05:53:46;;;;;;;26.53;16.30;;;12.90;98.30;;;;;;4116985;28;20488;-83
2021/05/13 05:55:49;;;;;;;40.93;24.60;;;13.00;98.30;;;;;;4116428;28;20476;-83
2021/05/13 05:57:51;;;;;;;48.73;32.17;;;13.00;98.30;;;;;;4117385;28;20464;-83
2021/05/13 05:59:57;;;;;;;35.53;22.20;;;13.10;98.30;;;;;;4115787;28;20591;-83
2021/05/13 06:02:01;;;;;;;28.13;18.57;;;13.10;98.30;;;;;;4113543;28;20477;-83
2021/05/13 06:04:04;;;;;;;25.13;16.83;;;13.10;98.30;;;;;;4115605;28;20468;-83
2021/05/13 06:06:32;;;;;;;27.97;17.00;;;13.10;98.30;;;;;;4113675;28;20547;-83
2021/05/13 06:08:36;;;;;;;26.97;17.17;;;13.20;98.30;;;;;;4117128;28;20468;-83
2021/05/13 06:10:39;;;;;;;28.33;16.80;;;13.20;98.30;;;;;;4114114;28;20494;-83
2021/05/13 06:12:43;;;;;;;27.00;19.40;;;13.10;98.30;;;;;;4115441;28;20895;-83
2021/05/13 06:14:45;;;;;;;25.30;16.50;;;13.20;98.30;;;;;;4110343;28;20480;-83
2021/05/13 06:16:47;;;;;;;28.57;19.30;;;13.20;98.30;;;;;;4117956;28;20476;-83
2021/05/13 06:18:52;;;;;;;26.90;15.93;;;13.20;98.30;;;;;;4113243;28;21001;-83
2021/05/13 06:20:55;;;;;;;23.67;15.77;;;13.20;98.30;;;;;;4108470;28;20509;-83
2021/05/13 06:22:58;;;;;;;26.07;16.57;;;13.20;98.30;;;;;;4114224;28;20829;-83
2021/05/13 06:25:00;;;;;;;29.03;16.77;;;13.20;98.30;;;;;;4112498;28;20467;-83
2021/05/13 06:27:05;;;;;;;31.87;18.30;;;13.20;98.30;;;;;;4112786;28;20569;-83
2021/05/13 06:29:08;;;;;;;35.17;23.90;;;13.20;98.30;;;;;;4112483;28;20893;-83
2021/05/13 06:31:11;;;;;;;71.47;41.27;;;13.20;98.30;;;;;;4114162;28;20555;-83
2021/05/13 06:33:13;;;;;;;34.47;17.50;;;13.20;98.30;;;;;;4115143;28;20492;-83
2021/05/13 06:35:19;;;;;;;23.37;16.00;;;13.20;98.30;;;;;;4113860;28;20895;-83
2021/05/13 06:37:22;;;;;;;27.17;16.17;;;13.10;98.30;;;;;;4113064;28;20475;-83
2021/05/13 06:39:24;;;;;;;27.07;16.70;;;13.10;98.30;;;;;;4113394;28;20499;-83
2021/05/13 06:41:27;;;;;;;25.37;16.37;;;13.00;98.30;;;;;;4114839;28;20480;-82
2021/05/13 06:43:29;;;;;;;26.47;17.70;;;13.10;98.30;;;;;;4115242;28;20475;-82
2021/05/13 06:45:31;;;;;;;30.93;15.37;;;13.10;98.30;;;;;;4107220;28;20850;-84
2021/05/13 06:47:34;;;;;;;30.10;18.70;;;13.20;98.30;;;;;;4111329;28;20479;-82
2021/05/13 06:49:36;;;;;;;28.50;16.40;;;13.20;98.30;;;;;;4108834;28;20586;-81
2021/05/13 06:51:40;;;;;;;28.77;18.50;;;13.20;98.30;;;;;;4109745;28;20994;-82
2021/05/13 06:53:42;;;;;;;25.80;16.30;;;13.30;98.30;;;;;;4111875;28;20488;-82
2021/05/13 06:55:48;;;;;;;26.97;16.80;;;13.40;98.30;;;;;;4114693;28;20488;-82
2021/05/13 06:57:50;;;;;;;21.50;15.33;;;13.30;98.30;;;;;;4113047;28;20467;-83
2021/05/13 06:59:53;;;;;;;22.67;13.70;;;13.30;98.30;;;;;;4108357;28;20515;-82
2021/05/13 07:01:58;;;;;;;21.47;13.17;;;13.30;98.30;;;;;;4113228;28;20479;-82
2021/05/13 07:04:01;;;;;;;21.00;13.33;;;13.30;98.30;;;;;;4113305;28;20468;-82
2021/05/13 07:06:03;;;;;;;23.17;13.67;;;13.30;98.30;;;;;;4112142;28;20530;-84
2021/05/13 07:08:07;;;;;;;18.60;13.10;;;13.30;98.30;;;;;;4114452;28;20910;-83
2021/05/13 07:10:10;;;;;;;21.23;13.77;;;13.20;98.30;;;;;;4112690;28;20546;-83
2021/05/13 07:12:13;;;;;;;19.23;12.90;;;13.20;98.30;;;;;;4113393;28;20474;-83
2021/05/13 07:14:16;;;;;;;20.60;13.40;;;13.20;98.30;;;;;;4112668;28;20519;-83
2021/05/13 07:16:18;;;;;;;22.67;16.00;;;13.20;98.30;;;;;;4109956;28;20478;-83
2021/05/13 07:18:21;;;;;;;18.53;12.73;;;13.30;98.30;;;;;;4114930;28;21032;-83
2021/05/13 07:20:24;;;;;;;23.90;15.53;;;13.30;98.30;;;;;;4112255;28;20505;-83
2021/05/13 07:22:26;;;;;;;20.30;13.90;;;13.20;98.30;;;;;;4111124;28;20470;-83
2021/05/13 07:24:29;;;;;;;18.80;14.13;;;13.10;98.30;;;;;;4107236;28;20468;-83
2021/05/13 07:26:32;;;;;;;17.60;12.83;;;13.10;98.30;;;;;;4111233;28;20892;-83
2021/05/13 07:28:35;;;;;;;22.20;17.80;;;13.10;98.30;;;;;;4117057;28;20495;-82
2021/05/13 07:30:37;;;;;;;23.07;15.63;;;13.10;98.30;;;;;;4113087;28;20500;-83
2021/05/13 07:32:40;;;;;;;18.10;13.23;;;13.10;98.30;;;;;;4112712;28;20515;-82
2021/05/13 07:34:42;;;;;;;19.00;12.17;;;13.10;98.30;;;;;;4112850;28;20524;-82
2021/05/13 07:36:45;;;;;;;18.00;13.20;;;13.10;98.30;;;;;;4114373;28;20588;-83
2021/05/13 07:38:48;;;;;;;25.03;16.07;;;13.20;98.30;;;;;;4114438;28;20499;-83
2021/05/13 07:40:51;;;;;;;15.50;12.20;;;13.30;98.30;;;;;;4112789;28;20551;-82
2021/05/13 07:42:58;;;;;;;16.37;11.67;;;13.30;98.30;;;;;;4113972;28;20472;-82
2021/05/13 07:45:06;;;;;;;17.13;11.47;;;13.40;98.30;;;;;;4111788;28;20464;-83
2021/05/13 07:47:10;;;;;;;18.30;11.77;;;13.40;98.30;;;;;;4113335;28;20471;-83
2021/05/13 07:49:20;;;;;;;13.73;10.80;;;13.40;98.30;;;;;;4116381;28;21166;-83
2021/05/13 07:51:23;;;;;;;22.33;13.23;;;13.40;98.30;;;;;;4110985;28;20573;-83
2021/05/13 07:53:26;;;;;;;17.20;11.73;;;13.40;98.30;;;;;;4117025;28;20488;-83
2021/05/13 07:55:39;;;;;;;14.93;10.73;;;13.40;98.30;;;;;;4115378;28;20490;-82
2021/05/13 07:57:47;;;;;;;32.40;24.30;;;13.40;98.30;;;;;;4117725;28;20472;-82
2021/05/13 07:59:55;;;;;;;87.33;54.53;;;13.40;98.30;;;;;;4117255;28;20865;-83
2021/05/13 08:02:00;;;;;;;19.17;15.10;;;13.40;98.30;;;;;;4118395;28;20467;-83
2021/05/13 08:04:10;;;;;;;21.13;13.83;;;13.40;98.30;;;;;;4118746;28;20486;-83
2021/05/13 08:06:20;;;;;;;17.00;12.33;;;13.40;98.30;;;;;;4117382;28;20476;-83
2021/05/13 08:08:26;;;;;;;19.53;13.10;;;13.40;98.30;;;;;;4116718;28;20515;-83
2021/05/13 08:10:32;;;;;;;15.93;11.33;;;13.40;98.30;;;;;;4119603;28;20483;-82
2021/05/13 08:12:34;;;;;;;15.43;11.00;;;13.50;98.30;;;;;;4116148;28;20502;-83
2021/05/13 08:14:38;;;;;;;19.33;13.50;;;13.50;98.30;;;;;;4114847;28;20546;-83
2021/05/13 08:16:40;;;;;;;17.80;13.43;;;13.50;98.30;;;;;;4115890;28;20478;-84
2021/05/13 08:18:44;;;;;;;16.07;12.07;;;13.60;98.30;;;;;;4118512;28;20507;-83
2021/05/13 08:20:47;;;;;;;21.43;11.30;;;13.60;98.30;;;;;;4115934;28;20500;-83
2021/05/13 08:22:50;;;;;;;14.77;11.00;;;13.60;98.30;;;;;;4115837;28;20502;-83
2021/05/13 08:24:52;;;;;;;13.30;9.63;;;13.70;98.30;;;;;;4115163;28;20472;-83
2021/05/13 08:26:57;;;;;;;10.33;8.63;;;13.70;98.30;;;;;;4115631;28;20478;-83
2021/05/13 08:29:01;;;;;;;13.17;9.83;;;13.70;98.30;;;;;;4115465;28;20861;-83
2021/05/13 08:31:06;;;;;;;13.27;8.97;;;13.70;98.30;;;;;;4116614;28;20927;-83
2021/05/13 08:33:08;;;;;;;9.93;8.40;;;13.80;98.30;;;;;;4119686;28;20463;-81
2021/05/13 08:35:49;;;;;;;14.10;9.23;;;13.90;98.30;;;;;;4117896;28;20503;-81
2021/05/13 08:37:54;;;;;;;12.00;9.03;;;13.80;98.30;;;;;;4117421;28;20519;-82
2021/05/13 08:40:05;;;;;;;12.10;9.20;;;13.80;98.30;;;;;;4116914;28;21181;-82
2021/05/13 08:42:28;;;;;;;10.77;8.80;;;13.80;98.30;;;;;;4115665;28;20474;-83
2021/05/13 08:44:31;;;;;;;14.23;10.50;;;13.90;98.30;;;;;;4116782;28;20527;-82
2021/05/13 08:46:40;;;;;;;10.80;8.10;;;13.90;98.30;;;;;;4115968;28;20471;-83
2021/05/13 08:48:44;;;;;;;11.83;8.63;;;14.00;98.30;;;;;;4117403;28;20495;-83
2021/05/13 08:50:49;;;;;;;12.03;8.30;;;14.00;98.30;;;;;;4117364;28;20958;-83
2021/05/13 08:52:52;;;;;;;11.37;8.63;;;14.00;98.30;;;;;;4117847;28;20463;-83
2021/05/13 08:54:56;;;;;;;9.63;7.70;;;13.90;98.30;;;;;;4117252;28;20502;-83
2021/05/13 08:56:58;;;;;;;9.37;6.70;;;14.00;98.30;;;;;;4118319;28;21041;-83
2021/05/13 08:59:05;;;;;;;12.77;6.93;;;14.00;98.30;;;;;;4119550;28;20846;-83
2021/05/13 09:01:14;;;;;;;7.67;6.90;;;13.90;98.30;;;;;;4118054;28;20468;-82
2021/05/13 09:03:31;;;;;;;13.00;7.70;;;13.90;98.30;;;;;;4118043;28;20489;-83
2021/05/13 09:05:51;;;;;;;11.10;7.87;;;14.00;98.30;;;;;;4114191;28;20474;-83
2021/05/13 09:07:53;;;;;;;8.70;7.57;;;14.00;98.30;;;;;;4115385;28;20567;-83
2021/05/13 09:10:01;;;;;;;9.67;7.97;;;14.00;98.30;;;;;;4114091;28;20497;-83
2021/05/13 09:12:04;;;;;;;9.07;7.90;;;14.00;98.30;;;;;;4116722;28;20554;-84
2021/05/13 09:14:07;;;;;;;13.30;7.63;;;14.00;98.30;;;;;;4112732;28;20494;-83
2021/05/13 09:16:25;;;;;;;9.87;7.57;;;14.00;98.30;;;;;;4112954;28;20472;-83
2021/05/13 09:18:33;;;;;;;9.73;7.43;;;14.00;98.30;;;;;;4113520;28;20468;-83
2021/05/13 09:20:38;;;;;;;8.03;6.73;;;13.90;98.30;;;;;;4111606;28;20467;-83
2021/05/13 09:22:49;;;;;;;10.93;7.90;;;14.00;98.30;;;;;;4116018;28;20468;-83
2021/05/13 09:24:55;;;;;;;9.07;7.30;;;14.10;98.30;;;;;;4115612;28;20498;-82
2021/05/13 09:26:57;;;;;;;9.07;7.70;;;14.00;98.30;;;;;;4112836;28;20880;-83
2021/05/13 09:29:10;;;;;;;8.90;7.20;;;13.90;98.30;;;;;;4113571;28;20594;-83
2021/05/13 09:31:36;;;;;;;10.63;7.30;;;14.00;98.30;;;;;;4119478;28;20476;-83
2021/05/13 09:33:42;;;;;;;10.27;7.90;;;14.00;98.30;;;;;;4117800;28;20495;-82
2021/05/13 09:35:46;;;;;;;8.33;7.40;;;14.10;98.30;;;;;;4118859;28;20988;-82
2021/05/13 09:37:50;;;;;;;9.00;7.60;;;14.10;98.30;;;;;;4116897;28;20961;-82
2021/05/13 09:39:52;;;;;;;10.13;7.50;;;14.00;98.30;;;;;;4121300;28;20583;-83
2021/05/13 09:41:58;;;;;;;12.77;8.63;;;14.00;98.30;;;;;;4116628;28;20498;-83
2021/05/13 09:44:02;;;;;;;8.80;6.77;;;14.00;98.30;;;;;;4118985;28;20468;-83
2021/05/13 09:46:07;;;;;;;9.00;7.53;;;14.00;98.30;;;;;;4117954;28;20468;-82
2021/05/13 09:48:10;;;;;;;8.93;7.80;;;14.00;98.30;;;;;;4117903;28;20527;-82
2021/05/13 09:50:22;;;;;;;10.03;7.13;;;14.10;98.30;;;;;;4120205;28;20559;-82
2021/05/13 09:52:48;;;;;;;9.37;7.30;;;14.00;98.30;;;;;;4115798;28;20543;-82
2021/05/13 09:55:09;;;;;;;11.90;8.10;;;14.20;98.30;;;;;;4117879;28;20568;-83
2021/05/13 09:57:28;;;;;;;8.30;7.13;;;14.30;98.30;;;;;;4119656;28;20476;-82
2021/05/13 09:59:34;;;;;;;9.77;6.87;;;14.30;98.30;;;;;;4120780;28;20498;-82
2021/05/13 10:01:37;;;;;;;9.20;7.13;;;14.40;98.30;;;;;;4120135;28;20461;-82
2021/05/13 10:03:40;;;;;;;9.90;7.50;;;14.40;98.30;;;;;;4116066;28;20478;-82
2021/05/13 10:05:47;;;;;;;9.03;7.37;;;14.30;98.30;;;;;;4117964;28;21033;-82
2021/05/13 10:07:52;;;;;;;9.37;7.33;;;14.40;98.30;;;;;;4115930;28;20523;-82
2021/05/13 10:10:10;;;;;;;10.40;7.30;;;14.40;98.30;;;;;;4111415;28;20496;-82
2021/05/13 10:12:14;;;;;;;9.40;7.70;;;14.30;98.30;;;;;;4114737;28;20500;-82
2021/05/13 10:14:18;;;;;;;9.70;7.37;;;14.30;98.30;;;;;;4113485;28;20468;-82
2021/05/13 10:16:22;;;;;;;10.83;7.80;;;14.40;98.30;;;;;;4115282;28;20477;-82
2021/05/13 10:18:28;;;;;;;9.00;7.80;;;14.40;98.30;;;;;;4117834;28;20543;-82
2021/05/13 10:20:32;;;;;;;12.40;7.73;;;14.40;98.30;;;;;;4118345;28;20474;-82
2021/05/13 10:22:36;;;;;;;8.20;7.40;;;14.30;98.30;;;;;;4117512;28;20511;-82
2021/05/13 10:24:39;;;;;;;9.67;7.40;;;14.30;98.30;;;;;;4116321;28;20476;-82
2021/05/13 10:26:46;;;;;;;8.13;7.27;;;14.30;98.30;;;;;;4117613;28;20479;-82
2021/05/13 10:28:49;;;;;;;13.50;8.83;;;14.30;98.30;;;;;;4116110;28;21071;-82
2021/05/13 10:31:03;;;;;;;16.77;12.67;;;14.30;98.30;;;;;;4116922;28;20466;-82
2021/05/13 10:33:11;;;;;;;17.13;10.00;;;14.30;98.30;;;;;;4118826;28;20467;-82